sensor_id;sensor_type;location;lat;lon;timestamp;temperature;humidity
16479;DHT22;8350;52.316;10.530;2024-03-06T00:01:26;4.20;99.90
16479;DHT22;8350;52.316;10.530;2024-03-06T00:03:53;4.20;99.90
16479;DHT22;8350;52.316;10.530;2024-03-06T00:06:20;4.20;99.90
16479;DHT22;8350;52.316;10.530;2024-03-06T00:08:47;4.20;99.90
16479;DHT22;8350;52.316;10.530;2024-03-06T00:11:14;4.20;99.90
16479;DHT22;8350;52.316;10.530;2024-03-06T00:13:41;4.10;99.90
16479;DHT22;8350;52.316;10.530;2024-03-06T00:16:09;4.10;99.90
16479;DHT22;8350;52.316;10.530;2024-03-06T00:18:36;4.00;99.90
16479;DHT22;8350;52.316;10.530;2024-03-06T00:21:03;4.00;99.90
16479;DHT22;8350;52.316;10.530;2024-03-06T00:23:30;4.00;99.90
16479;DHT22;8350;52.316;10.530;2024-03-06T00:25:57;4.00;99.90
16479;DHT22;8350;52.316;10.530;2024-03-06T00:28:24;3.90;99.90
16479;DHT22;8350;52.316;10.530;2024-03-06T00:30:51;3.90;99.90
16479;DHT22;8350;52.316;10.530;2024-03-06T00:33:20;3.80;99.90
16479;DHT22;8350;52.316;10.530;2024-03-06T00:35:47;3.80;99.90
16479;DHT22;8350;52.316;10.530;2024-03-06T00:38:14;3.80;99.90
16479;DHT22;8350;52.316;10.530;2024-03-06T00:40:41;3.80;99.90
16479;DHT22;8350;52.316;10.530;2024-03-06T00:43:07;3.70;99.90
16479;DHT22;8350;52.316;10.530;2024-03-06T00:45:34;3.80;99.90
16479;DHT22;8350;52.316;10.530;2024-03-06T00:48:02;3.80;99.90
16479;DHT22;8350;52.316;10.530;2024-03-06T00:50:30;3.70;99.90
16479;DHT22;8350;52.316;10.530;2024-03-06T00:53:03;3.70;99.90
16479;DHT22;8350;52.316;10.530;2024-03-06T00:55:31;3.80;99.90
16479;DHT22;8350;52.316;10.530;2024-03-06T00:57:57;3.80;99.90
16479;DHT22;8350;52.316;10.530;2024-03-06T01:00:27;3.80;99.90
16479;DHT22;8350;52.316;10.530;2024-03-06T01:02:56;3.80;99.90
16479;DHT22;8350;52.316;10.530;2024-03-06T01:05:23;3.80;99.90
16479;DHT22;8350;52.316;10.530;2024-03-06T01:07:51;3.70;99.90
16479;DHT22;8350;52.316;10.530;2024-03-06T01:10:20;3.70;99.90
16479;DHT22;8350;52.316;10.530;2024-03-06T01:12:47;3.60;99.90
16479;DHT22;8350;52.316;10.530;2024-03-06T01:15:17;3.60;99.90
16479;DHT22;8350;52.316;10.530;2024-03-06T01:17:44;3.60;99.90
16479;DHT22;8350;52.316;10.530;2024-03-06T01:20:12;3.50;99.90
16479;DHT22;8350;52.316;10.530;2024-03-06T01:22:39;3.50;99.90
16479;DHT22;8350;52.316;10.530;2024-03-06T01:25:07;3.50;99.90
16479;DHT22;8350;52.316;10.530;2024-03-06T01:27:35;3.50;99.90
16479;DHT22;8350;52.316;10.530;2024-03-06T01:30:02;3.50;99.90
16479;DHT22;8350;52.316;10.530;2024-03-06T01:32:29;3.50;99.90
16479;DHT22;8350;52.316;10.530;2024-03-06T01:34:56;3.50;99.90
16479;DHT22;8350;52.316;10.530;2024-03-06T01:37:23;3.40;99.90
16479;DHT22;8350;52.316;10.530;2024-03-06T01:39:50;3.40;99.90
16479;DHT22;8350;52.316;10.530;2024-03-06T01:42:19;3.30;99.90
16479;DHT22;8350;52.316;10.530;2024-03-06T01:44:45;3.30;99.90
16479;DHT22;8350;52.316;10.530;2024-03-06T01:47:12;3.30;99.90
16479;DHT22;8350;52.316;10.530;2024-03-06T01:49:40;3.30;99.90
16479;DHT22;8350;52.316;10.530;2024-03-06T01:52:08;3.40;99.90
16479;DHT22;8350;52.316;10.530;2024-03-06T01:54:36;3.40;99.90
16479;DHT22;8350;52.316;10.530;2024-03-06T01:57:06;3.40;99.90
16479;DHT22;8350;52.316;10.530;2024-03-06T01:59:36;3.40;99.90
16479;DHT22;8350;52.316;10.530;2024-03-06T02:02:05;3.40;99.90
16479;DHT22;8350;52.316;10.530;2024-03-06T02:04:33;3.30;99.90
16479;DHT22;8350;52.316;10.530;2024-03-06T02:07:01;3.40;99.90
16479;DHT22;8350;52.316;10.530;2024-03-06T02:09:29;3.30;99.90
16479;DHT22;8350;52.316;10.530;2024-03-06T02:11:55;3.30;99.90
16479;DHT22;8350;52.316;10.530;2024-03-06T02:14:23;3.30;99.90
16479;DHT22;8350;52.316;10.530;2024-03-06T02:16:51;3.40;99.90
16479;DHT22;8350;52.316;10.530;2024-03-06T02:19:18;3.30;99.90
16479;DHT22;8350;52.316;10.530;2024-03-06T02:21:47;3.30;99.90
16479;DHT22;8350;52.316;10.530;2024-03-06T02:24:14;3.40;99.90
16479;DHT22;8350;52.316;10.530;2024-03-06T02:26:41;3.30;99.90
16479;DHT22;8350;52.316;10.530;2024-03-06T02:29:08;3.30;99.90
16479;DHT22;8350;52.316;10.530;2024-03-06T02:31:36;3.40;99.90
16479;DHT22;8350;52.316;10.530;2024-03-06T02:34:04;3.40;99.90
16479;DHT22;8350;52.316;10.530;2024-03-06T02:36:31;3.50;99.90
16479;DHT22;8350;52.316;10.530;2024-03-06T02:39:00;3.50;99.90
16479;DHT22;8350;52.316;10.530;2024-03-06T02:41:28;3.50;99.90
16479;DHT22;8350;52.316;10.530;2024-03-06T02:43:55;3.40;99.90
16479;DHT22;8350;52.316;10.530;2024-03-06T02:46:22;3.40;99.90
16479;DHT22;8350;52.316;10.530;2024-03-06T02:48:49;3.30;99.90
16479;DHT22;8350;52.316;10.530;2024-03-06T02:51:18;3.30;99.90
16479;DHT22;8350;52.316;10.530;2024-03-06T02:53:45;3.40;99.90
16479;DHT22;8350;52.316;10.530;2024-03-06T02:56:17;3.40;99.90
16479;DHT22;8350;52.316;10.530;2024-03-06T02:58:45;3.40;99.90
16479;DHT22;8350;52.316;10.530;2024-03-06T03:01:14;3.40;99.90
16479;DHT22;8350;52.316;10.530;2024-03-06T03:03:41;3.40;99.90
16479;DHT22;8350;52.316;10.530;2024-03-06T03:06:07;3.40;99.90
16479;DHT22;8350;52.316;10.530;2024-03-06T03:08:34;3.30;99.90
16479;DHT22;8350;52.316;10.530;2024-03-06T03:11:02;3.40;99.90
16479;DHT22;8350;52.316;10.530;2024-03-06T03:13:30;3.30;99.90
16479;DHT22;8350;52.316;10.530;2024-03-06T03:15:57;3.30;99.90
16479;DHT22;8350;52.316;10.530;2024-03-06T03:18:24;3.30;99.90
16479;DHT22;8350;52.316;10.530;2024-03-06T03:20:52;3.30;99.90
16479;DHT22;8350;52.316;10.530;2024-03-06T03:23:18;3.30;99.90
16479;DHT22;8350;52.316;10.530;2024-03-06T03:25:47;3.30;99.90
16479;DHT22;8350;52.316;10.530;2024-03-06T03:28:15;3.30;99.90
16479;DHT22;8350;52.316;10.530;2024-03-06T03:30:46;3.30;99.90
16479;DHT22;8350;52.316;10.530;2024-03-06T03:33:13;3.30;99.90
16479;DHT22;8350;52.316;10.530;2024-03-06T03:35:40;3.30;99.90
16479;DHT22;8350;52.316;10.530;2024-03-06T03:38:07;3.30;99.90
16479;DHT22;8350;52.316;10.530;2024-03-06T03:40:34;3.30;99.90
16479;DHT22;8350;52.316;10.530;2024-03-06T03:43:01;3.30;99.90
16479;DHT22;8350;52.316;10.530;2024-03-06T03:45:33;3.30;99.90
16479;DHT22;8350;52.316;10.530;2024-03-06T03:48:03;3.30;99.90
16479;DHT22;8350;52.316;10.530;2024-03-06T03:50:30;3.30;99.90
16479;DHT22;8350;52.316;10.530;2024-03-06T03:53:15;3.30;99.90
16479;DHT22;8350;52.316;10.530;2024-03-06T03:55:42;3.30;99.90
16479;DHT22;8350;52.316;10.530;2024-03-06T03:58:10;3.30;99.90
16479;DHT22;8350;52.316;10.530;2024-03-06T04:00:37;3.30;99.90
16479;DHT22;8350;52.316;10.530;2024-03-06T04:03:05;3.30;99.90
16479;DHT22;8350;52.316;10.530;2024-03-06T04:05:36;3.30;99.90
16479;DHT22;8350;52.316;10.530;2024-03-06T04:08:03;3.30;99.90
16479;DHT22;8350;52.316;10.530;2024-03-06T04:10:32;3.20;99.90
16479;DHT22;8350;52.316;10.530;2024-03-06T04:12:59;3.20;99.90
16479;DHT22;8350;52.316;10.530;2024-03-06T04:15:26;3.30;99.90
16479;DHT22;8350;52.316;10.530;2024-03-06T04:17:53;3.30;99.90
16479;DHT22;8350;52.316;10.530;2024-03-06T04:20:21;3.20;99.90
16479;DHT22;8350;52.316;10.530;2024-03-06T04:22:48;3.20;99.90
16479;DHT22;8350;52.316;10.530;2024-03-06T04:25:16;3.10;99.90
16479;DHT22;8350;52.316;10.530;2024-03-06T04:27:44;3.10;99.90
16479;DHT22;8350;52.316;10.530;2024-03-06T04:30:12;3.10;99.90
16479;DHT22;8350;52.316;10.530;2024-03-06T04:32:41;3.10;99.90
16479;DHT22;8350;52.316;10.530;2024-03-06T04:35:15;3.00;99.90
16479;DHT22;8350;52.316;10.530;2024-03-06T04:37:43;3.00;99.90
16479;DHT22;8350;52.316;10.530;2024-03-06T04:40:28;2.90;99.90
16479;DHT22;8350;52.316;10.530;2024-03-06T04:42:56;2.90;99.90
16479;DHT22;8350;52.316;10.530;2024-03-06T04:45:23;2.90;99.90
16479;DHT22;8350;52.316;10.530;2024-03-06T04:47:51;2.80;99.90
16479;DHT22;8350;52.316;10.530;2024-03-06T04:50:20;2.80;99.90
16479;DHT22;8350;52.316;10.530;2024-03-06T04:52:56;2.80;99.90
16479;DHT22;8350;52.316;10.530;2024-03-06T04:55:27;2.80;99.90
16479;DHT22;8350;52.316;10.530;2024-03-06T04:57:57;2.80;99.90
16479;DHT22;8350;52.316;10.530;2024-03-06T05:00:24;2.80;99.90
16479;DHT22;8350;52.316;10.530;2024-03-06T05:02:50;2.80;99.90
16479;DHT22;8350;52.316;10.530;2024-03-06T05:05:17;2.80;99.90
16479;DHT22;8350;52.316;10.530;2024-03-06T05:07:46;2.80;99.90
16479;DHT22;8350;52.316;10.530;2024-03-06T05:10:14;2.90;99.90
16479;DHT22;8350;52.316;10.530;2024-03-06T05:12:42;2.80;99.90
16479;DHT22;8350;52.316;10.530;2024-03-06T05:15:10;2.90;99.90
16479;DHT22;8350;52.316;10.530;2024-03-06T05:17:37;2.90;99.90
16479;DHT22;8350;52.316;10.530;2024-03-06T05:20:08;2.90;99.90
16479;DHT22;8350;52.316;10.530;2024-03-06T05:22:35;2.80;99.90
16479;DHT22;8350;52.316;10.530;2024-03-06T05:25:03;2.80;99.90
16479;DHT22;8350;52.316;10.530;2024-03-06T05:27:32;2.80;99.90
16479;DHT22;8350;52.316;10.530;2024-03-06T05:30:00;2.80;99.90
16479;DHT22;8350;52.316;10.530;2024-03-06T05:32:31;2.80;99.90
16479;DHT22;8350;52.316;10.530;2024-03-06T05:34:58;2.80;99.90
16479;DHT22;8350;52.316;10.530;2024-03-06T05:37:25;2.80;99.90
16479;DHT22;8350;52.316;10.530;2024-03-06T05:39:54;2.70;99.90
16479;DHT22;8350;52.316;10.530;2024-03-06T05:42:21;2.70;99.90
16479;DHT22;8350;52.316;10.530;2024-03-06T05:44:49;2.70;99.90
16479;DHT22;8350;52.316;10.530;2024-03-06T05:47:21;2.70;99.90
16479;DHT22;8350;52.316;10.530;2024-03-06T05:49:48;2.70;99.90
16479;DHT22;8350;52.316;10.530;2024-03-06T05:52:24;2.60;99.90
16479;DHT22;8350;52.316;10.530;2024-03-06T05:54:53;2.60;99.90
16479;DHT22;8350;52.316;10.530;2024-03-06T05:57:20;2.60;99.90
16479;DHT22;8350;52.316;10.530;2024-03-06T05:59:49;2.60;99.90
16479;DHT22;8350;52.316;10.530;2024-03-06T06:02:16;2.60;99.90
16479;DHT22;8350;52.316;10.530;2024-03-06T06:04:45;2.50;99.90
16479;DHT22;8350;52.316;10.530;2024-03-06T06:07:12;2.50;99.90
16479;DHT22;8350;52.316;10.530;2024-03-06T06:09:39;2.50;99.90
16479;DHT22;8350;52.316;10.530;2024-03-06T06:12:06;2.60;99.90
16479;DHT22;8350;52.316;10.530;2024-03-06T06:14:32;2.60;99.90
16479;DHT22;8350;52.316;10.530;2024-03-06T06:17:01;2.60;99.90
16479;DHT22;8350;52.316;10.530;2024-03-06T06:19:28;2.60;99.90
16479;DHT22;8350;52.316;10.530;2024-03-06T06:21:56;2.60;99.90
16479;DHT22;8350;52.316;10.530;2024-03-06T06:24:24;2.60;99.90
16479;DHT22;8350;52.316;10.530;2024-03-06T06:26:51;2.70;99.90
16479;DHT22;8350;52.316;10.530;2024-03-06T06:29:22;2.70;99.90
16479;DHT22;8350;52.316;10.530;2024-03-06T06:31:51;2.70;99.90
16479;DHT22;8350;52.316;10.530;2024-03-06T06:34:20;2.70;99.90
16479;DHT22;8350;52.316;10.530;2024-03-06T06:36:47;2.80;99.90
16479;DHT22;8350;52.316;10.530;2024-03-06T06:39:14;2.90;99.90
16479;DHT22;8350;52.316;10.530;2024-03-06T06:41:42;3.10;99.90
16479;DHT22;8350;52.316;10.530;2024-03-06T06:44:10;3.40;99.90
16479;DHT22;8350;52.316;10.530;2024-03-06T06:46:37;3.40;99.90
16479;DHT22;8350;52.316;10.530;2024-03-06T06:49:04;3.50;99.90
16479;DHT22;8350;52.316;10.530;2024-03-06T06:51:32;3.70;99.90
16479;DHT22;8350;52.316;10.530;2024-03-06T06:54:01;3.90;99.90
16479;DHT22;8350;52.316;10.530;2024-03-06T06:56:27;3.90;99.90
16479;DHT22;8350;52.316;10.530;2024-03-06T06:58:54;3.60;99.90
16479;DHT22;8350;52.316;10.530;2024-03-06T07:01:23;3.40;99.90
16479;DHT22;8350;52.316;10.530;2024-03-06T07:03:49;3.20;99.90
16479;DHT22;8350;52.316;10.530;2024-03-06T07:06:16;3.10;99.90
16479;DHT22;8350;52.316;10.530;2024-03-06T07:08:45;3.10;99.90
16479;DHT22;8350;52.316;10.530;2024-03-06T07:11:12;3.10;99.90
16479;DHT22;8350;52.316;10.530;2024-03-06T07:13:42;3.20;99.90
16479;DHT22;8350;52.316;10.530;2024-03-06T07:16:09;3.20;99.90
16479;DHT22;8350;52.316;10.530;2024-03-06T07:18:36;3.30;99.90
16479;DHT22;8350;52.316;10.530;2024-03-06T07:21:03;3.40;99.90
16479;DHT22;8350;52.316;10.530;2024-03-06T07:23:30;3.40;99.90
16479;DHT22;8350;52.316;10.530;2024-03-06T07:25:59;3.40;99.90
16479;DHT22;8350;52.316;10.530;2024-03-06T07:28:26;3.50;99.90
16479;DHT22;8350;52.316;10.530;2024-03-06T07:30:52;3.50;99.90
16479;DHT22;8350;52.316;10.530;2024-03-06T07:33:19;3.60;99.90
16479;DHT22;8350;52.316;10.530;2024-03-06T07:35:47;3.60;99.90
16479;DHT22;8350;52.316;10.530;2024-03-06T07:38:14;3.60;99.90
16479;DHT22;8350;52.316;10.530;2024-03-06T07:40:41;3.70;99.90
16479;DHT22;8350;52.316;10.530;2024-03-06T07:43:09;3.70;99.90
16479;DHT22;8350;52.316;10.530;2024-03-06T07:45:36;3.80;99.90
16479;DHT22;8350;52.316;10.530;2024-03-06T07:48:04;3.90;99.90
16479;DHT22;8350;52.316;10.530;2024-03-06T07:50:33;4.00;99.90
16479;DHT22;8350;52.316;10.530;2024-03-06T07:53:00;4.00;99.90
16479;DHT22;8350;52.316;10.530;2024-03-06T07:55:36;4.10;99.90
16479;DHT22;8350;52.316;10.530;2024-03-06T07:58:04;4.20;99.90
16479;DHT22;8350;52.316;10.530;2024-03-06T08:00:32;4.20;99.90
16479;DHT22;8350;52.316;10.530;2024-03-06T08:03:01;4.30;99.90
16479;DHT22;8350;52.316;10.530;2024-03-06T08:05:28;4.40;99.90
16479;DHT22;8350;52.316;10.530;2024-03-06T08:07:55;4.40;99.90
16479;DHT22;8350;52.316;10.530;2024-03-06T08:10:24;4.40;99.90
16479;DHT22;8350;52.316;10.530;2024-03-06T08:12:51;4.50;99.90
16479;DHT22;8350;52.316;10.530;2024-03-06T08:15:18;4.50;99.90
16479;DHT22;8350;52.316;10.530;2024-03-06T08:17:48;4.60;99.90
16479;DHT22;8350;52.316;10.530;2024-03-06T08:20:18;4.70;99.90
16479;DHT22;8350;52.316;10.530;2024-03-06T08:22:45;4.80;99.90
16479;DHT22;8350;52.316;10.530;2024-03-06T08:25:13;4.90;99.90
16479;DHT22;8350;52.316;10.530;2024-03-06T08:27:40;5.00;99.90
16479;DHT22;8350;52.316;10.530;2024-03-06T08:30:08;5.00;99.90
16479;DHT22;8350;52.316;10.530;2024-03-06T08:32:36;5.10;99.90
16479;DHT22;8350;52.316;10.530;2024-03-06T08:35:08;5.20;99.90
16479;DHT22;8350;52.316;10.530;2024-03-06T08:37:37;5.30;99.90
16479;DHT22;8350;52.316;10.530;2024-03-06T08:40:07;5.40;99.90
16479;DHT22;8350;52.316;10.530;2024-03-06T08:42:37;5.50;99.90
16479;DHT22;8350;52.316;10.530;2024-03-06T08:45:05;5.60;99.90
16479;DHT22;8350;52.316;10.530;2024-03-06T08:47:33;5.60;99.90
16479;DHT22;8350;52.316;10.530;2024-03-06T08:50:00;5.70;99.90
16479;DHT22;8350;52.316;10.530;2024-03-06T08:52:29;5.80;99.90
16479;DHT22;8350;52.316;10.530;2024-03-06T08:55:01;5.90;99.90
16479;DHT22;8350;52.316;10.530;2024-03-06T08:57:32;5.90;99.90
16479;DHT22;8350;52.316;10.530;2024-03-06T09:00:00;6.00;99.90
16479;DHT22;8350;52.316;10.530;2024-03-06T09:02:27;6.10;99.90
16479;DHT22;8350;52.316;10.530;2024-03-06T09:04:54;6.20;99.90
16479;DHT22;8350;52.316;10.530;2024-03-06T09:07:22;6.30;99.90
16479;DHT22;8350;52.316;10.530;2024-03-06T09:09:51;6.20;99.90
16479;DHT22;8350;52.316;10.530;2024-03-06T09:12:18;6.20;99.90
16479;DHT22;8350;52.316;10.530;2024-03-06T09:15:00;6.20;99.90
16479;DHT22;8350;52.316;10.530;2024-03-06T09:17:27;6.30;99.90
16479;DHT22;8350;52.316;10.530;2024-03-06T09:19:54;6.30;99.90
16479;DHT22;8350;52.316;10.530;2024-03-06T09:22:22;6.30;99.90
16479;DHT22;8350;52.316;10.530;2024-03-06T09:24:49;6.40;99.90
16479;DHT22;8350;52.316;10.530;2024-03-06T09:27:17;6.40;99.90
16479;DHT22;8350;52.316;10.530;2024-03-06T09:29:44;6.50;99.90
16479;DHT22;8350;52.316;10.530;2024-03-06T09:32:13;6.60;99.90
16479;DHT22;8350;52.316;10.530;2024-03-06T09:34:41;6.70;99.90
16479;DHT22;8350;52.316;10.530;2024-03-06T09:37:10;6.80;99.90
16479;DHT22;8350;52.316;10.530;2024-03-06T09:39:37;6.90;99.90
16479;DHT22;8350;52.316;10.530;2024-03-06T09:42:05;7.00;99.90
16479;DHT22;8350;52.316;10.530;2024-03-06T09:44:35;7.10;99.90
16479;DHT22;8350;52.316;10.530;2024-03-06T09:47:13;7.20;99.90
16479;DHT22;8350;52.316;10.530;2024-03-06T09:49:40;7.30;99.90
16479;DHT22;8350;52.316;10.530;2024-03-06T09:52:08;7.40;99.90
16479;DHT22;8350;52.316;10.530;2024-03-06T09:54:37;7.50;99.90
16479;DHT22;8350;52.316;10.530;2024-03-06T09:57:06;7.50;99.90
16479;DHT22;8350;52.316;10.530;2024-03-06T09:59:34;7.50;99.90
16479;DHT22;8350;52.316;10.530;2024-03-06T10:02:10;7.40;99.90
16479;DHT22;8350;52.316;10.530;2024-03-06T10:04:46;7.50;99.90
16479;DHT22;8350;52.316;10.530;2024-03-06T10:07:16;7.60;99.90
16479;DHT22;8350;52.316;10.530;2024-03-06T10:09:47;7.60;99.90
16479;DHT22;8350;52.316;10.530;2024-03-06T10:12:17;7.70;99.90
16479;DHT22;8350;52.316;10.530;2024-03-06T10:14:52;7.70;99.90
16479;DHT22;8350;52.316;10.530;2024-03-06T10:17:20;7.80;99.90
16479;DHT22;8350;52.316;10.530;2024-03-06T10:19:52;7.90;99.90
16479;DHT22;8350;52.316;10.530;2024-03-06T10:22:19;8.00;99.90
16479;DHT22;8350;52.316;10.530;2024-03-06T10:24:49;8.10;99.90
16479;DHT22;8350;52.316;10.530;2024-03-06T10:27:17;8.30;99.90
16479;DHT22;8350;52.316;10.530;2024-03-06T10:29:44;8.50;99.90
16479;DHT22;8350;52.316;10.530;2024-03-06T10:32:16;8.50;99.90
16479;DHT22;8350;52.316;10.530;2024-03-06T10:34:45;8.60;99.90
16479;DHT22;8350;52.316;10.530;2024-03-06T10:37:14;8.70;99.90
16479;DHT22;8350;52.316;10.530;2024-03-06T10:39:42;8.80;99.90
16479;DHT22;8350;52.316;10.530;2024-03-06T10:42:13;8.90;99.90
16479;DHT22;8350;52.316;10.530;2024-03-06T10:44:48;8.90;99.90
16479;DHT22;8350;52.316;10.530;2024-03-06T10:47:23;9.00;99.90
16479;DHT22;8350;52.316;10.530;2024-03-06T10:50:06;9.10;99.90
16479;DHT22;8350;52.316;10.530;2024-03-06T10:52:56;9.10;99.90
16479;DHT22;8350;52.316;10.530;2024-03-06T10:55:43;9.10;99.90
16479;DHT22;8350;52.316;10.530;2024-03-06T10:58:12;9.20;99.90
16479;DHT22;8350;52.316;10.530;2024-03-06T11:00:43;9.30;99.90
16479;DHT22;8350;52.316;10.530;2024-03-06T11:03:14;9.10;99.90
16479;DHT22;8350;52.316;10.530;2024-03-06T11:05:41;9.10;99.90
16479;DHT22;8350;52.316;10.530;2024-03-06T11:08:10;9.10;99.90
16479;DHT22;8350;52.316;10.530;2024-03-06T11:10:38;9.10;99.90
16479;DHT22;8350;52.316;10.530;2024-03-06T11:13:21;9.10;99.90
16479;DHT22;8350;52.316;10.530;2024-03-06T11:15:50;9.30;99.90
16479;DHT22;8350;52.316;10.530;2024-03-06T11:18:50;9.50;99.90
16479;DHT22;8350;52.316;10.530;2024-03-06T11:21:34;9.60;99.90
16479;DHT22;8350;52.316;10.530;2024-03-06T11:24:20;9.50;99.90
16479;DHT22;8350;52.316;10.530;2024-03-06T11:26:57;9.70;99.90
16479;DHT22;8350;52.316;10.530;2024-03-06T11:30:04;9.90;99.90
16479;DHT22;8350;52.316;10.530;2024-03-06T11:32:36;9.90;99.90
16479;DHT22;8350;52.316;10.530;2024-03-06T11:35:05;10.00;99.90
16479;DHT22;8350;52.316;10.530;2024-03-06T11:37:34;10.10;99.90
16479;DHT22;8350;52.316;10.530;2024-03-06T11:40:04;10.00;99.90
16479;DHT22;8350;52.316;10.530;2024-03-06T11:42:34;10.10;99.90
16479;DHT22;8350;52.316;10.530;2024-03-06T11:45:13;9.90;99.90
16479;DHT22;8350;52.316;10.530;2024-03-06T11:47:56;9.60;99.90
16479;DHT22;8350;52.316;10.530;2024-03-06T11:50:27;9.70;99.90
16479;DHT22;8350;52.316;10.530;2024-03-06T11:53:01;9.80;99.90
16479;DHT22;8350;52.316;10.530;2024-03-06T11:55:31;9.90;99.90
16479;DHT22;8350;52.316;10.530;2024-03-06T11:57:57;9.90;99.90
16479;DHT22;8350;52.316;10.530;2024-03-06T12:00:24;9.80;99.90
16479;DHT22;8350;52.316;10.530;2024-03-06T12:02:53;10.10;99.90
16479;DHT22;8350;52.316;10.530;2024-03-06T12:05:24;10.10;99.90
16479;DHT22;8350;52.316;10.530;2024-03-06T12:07:53;10.20;99.90
16479;DHT22;8350;52.316;10.530;2024-03-06T12:10:21;10.40;99.90
16479;DHT22;8350;52.316;10.530;2024-03-06T12:12:48;10.40;99.90
16479;DHT22;8350;52.316;10.530;2024-03-06T12:15:15;10.40;99.90
16479;DHT22;8350;52.316;10.530;2024-03-06T12:17:46;10.30;99.90
16479;DHT22;8350;52.316;10.530;2024-03-06T12:20:14;10.30;99.90
16479;DHT22;8350;52.316;10.530;2024-03-06T12:22:48;10.30;99.90
16479;DHT22;8350;52.316;10.530;2024-03-06T12:25:24;10.30;99.90
16479;DHT22;8350;52.316;10.530;2024-03-06T12:27:54;10.30;99.90
16479;DHT22;8350;52.316;10.530;2024-03-06T12:30:42;10.10;99.90
16479;DHT22;8350;52.316;10.530;2024-03-06T12:33:16;10.20;99.90
16479;DHT22;8350;52.316;10.530;2024-03-06T12:35:43;10.20;99.90
16479;DHT22;8350;52.316;10.530;2024-03-06T12:38:28;10.20;99.90
16479;DHT22;8350;52.316;10.530;2024-03-06T12:40:56;10.40;99.90
16479;DHT22;8350;52.316;10.530;2024-03-06T12:43:24;10.40;99.90
16479;DHT22;8350;52.316;10.530;2024-03-06T12:45:52;10.20;99.90
16479;DHT22;8350;52.316;10.530;2024-03-06T12:48:21;9.90;99.90
16479;DHT22;8350;52.316;10.530;2024-03-06T12:50:48;9.70;99.90
16479;DHT22;8350;52.316;10.530;2024-03-06T12:53:18;9.90;99.90
16479;DHT22;8350;52.316;10.530;2024-03-06T12:55:47;10.10;99.90
16479;DHT22;8350;52.316;10.530;2024-03-06T12:58:14;10.20;99.90
16479;DHT22;8350;52.316;10.530;2024-03-06T13:00:41;10.10;99.90
16479;DHT22;8350;52.316;10.530;2024-03-06T13:03:08;10.20;99.90
16479;DHT22;8350;52.316;10.530;2024-03-06T13:05:35;10.10;99.90
16479;DHT22;8350;52.316;10.530;2024-03-06T13:08:04;10.30;99.90
16479;DHT22;8350;52.316;10.530;2024-03-06T13:10:33;10.30;99.90
16479;DHT22;8350;52.316;10.530;2024-03-06T13:13:03;10.20;99.90
16479;DHT22;8350;52.316;10.530;2024-03-06T13:15:29;10.10;99.90
16479;DHT22;8350;52.316;10.530;2024-03-06T13:17:56;10.30;99.90
16479;DHT22;8350;52.316;10.530;2024-03-06T13:20:23;10.50;99.90
16479;DHT22;8350;52.316;10.530;2024-03-06T13:22:51;10.70;99.90
16479;DHT22;8350;52.316;10.530;2024-03-06T13:25:18;10.80;99.90
16479;DHT22;8350;52.316;10.530;2024-03-06T13:27:45;10.80;99.90
16479;DHT22;8350;52.316;10.530;2024-03-06T13:30:16;10.60;99.90
16479;DHT22;8350;52.316;10.530;2024-03-06T13:32:43;10.20;99.90
16479;DHT22;8350;52.316;10.530;2024-03-06T13:35:11;10.00;99.90
16479;DHT22;8350;52.316;10.530;2024-03-06T13:37:39;10.00;99.90
16479;DHT22;8350;52.316;10.530;2024-03-06T13:40:07;9.50;99.90
16479;DHT22;8350;52.316;10.530;2024-03-06T13:42:34;9.40;99.90
16479;DHT22;8350;52.316;10.530;2024-03-06T13:45:01;9.40;99.90
16479;DHT22;8350;52.316;10.530;2024-03-06T13:47:30;9.60;99.90
16479;DHT22;8350;52.316;10.530;2024-03-06T13:50:10;9.70;99.90
16479;DHT22;8350;52.316;10.530;2024-03-06T13:52:37;9.40;99.90
16479;DHT22;8350;52.316;10.530;2024-03-06T13:55:05;9.40;99.90
16479;DHT22;8350;52.316;10.530;2024-03-06T13:57:32;9.40;99.90
16479;DHT22;8350;52.316;10.530;2024-03-06T14:00:00;9.50;99.90
16479;DHT22;8350;52.316;10.530;2024-03-06T14:02:28;9.60;99.90
16479;DHT22;8350;52.316;10.530;2024-03-06T14:04:55;9.50;99.90
16479;DHT22;8350;52.316;10.530;2024-03-06T14:07:22;9.50;99.90
16479;DHT22;8350;52.316;10.530;2024-03-06T14:09:50;9.70;99.90
16479;DHT22;8350;52.316;10.530;2024-03-06T14:12:16;9.80;99.90
16479;DHT22;8350;52.316;10.530;2024-03-06T14:14:43;9.70;99.90
16479;DHT22;8350;52.316;10.530;2024-03-06T14:17:11;9.70;99.90
16479;DHT22;8350;52.316;10.530;2024-03-06T14:19:42;9.70;99.90
16479;DHT22;8350;52.316;10.530;2024-03-06T14:22:11;9.80;99.90
16479;DHT22;8350;52.316;10.530;2024-03-06T14:24:38;9.70;99.90
16479;DHT22;8350;52.316;10.530;2024-03-06T14:27:05;9.80;99.90
16479;DHT22;8350;52.316;10.530;2024-03-06T14:29:32;9.80;99.90
16479;DHT22;8350;52.316;10.530;2024-03-06T14:31:59;9.50;99.90
16479;DHT22;8350;52.316;10.530;2024-03-06T14:34:32;9.40;99.90
16479;DHT22;8350;52.316;10.530;2024-03-06T14:37:02;9.60;99.90
16479;DHT22;8350;52.316;10.530;2024-03-06T14:39:29;9.60;99.90
16479;DHT22;8350;52.316;10.530;2024-03-06T14:41:58;9.70;99.90
16479;DHT22;8350;52.316;10.530;2024-03-06T14:44:27;9.70;99.90
16479;DHT22;8350;52.316;10.530;2024-03-06T14:46:57;9.50;99.90
16479;DHT22;8350;52.316;10.530;2024-03-06T14:49:24;9.50;99.90
16479;DHT22;8350;52.316;10.530;2024-03-06T14:51:52;9.40;99.90
16479;DHT22;8350;52.316;10.530;2024-03-06T14:54:22;9.40;99.90
16479;DHT22;8350;52.316;10.530;2024-03-06T14:57:02;9.30;99.90
16479;DHT22;8350;52.316;10.530;2024-03-06T14:59:30;9.20;99.90
16479;DHT22;8350;52.316;10.530;2024-03-06T15:01:57;9.20;99.90
16479;DHT22;8350;52.316;10.530;2024-03-06T15:04:29;9.30;99.90
16479;DHT22;8350;52.316;10.530;2024-03-06T15:06:56;9.30;99.90
16479;DHT22;8350;52.316;10.530;2024-03-06T15:09:26;9.40;99.90
16479;DHT22;8350;52.316;10.530;2024-03-06T15:11:53;9.50;99.90
16479;DHT22;8350;52.316;10.530;2024-03-06T15:14:22;9.40;99.90
16479;DHT22;8350;52.316;10.530;2024-03-06T15:16:48;9.10;99.90
16479;DHT22;8350;52.316;10.530;2024-03-06T15:19:17;9.00;99.90
16479;DHT22;8350;52.316;10.530;2024-03-06T15:21:44;8.90;99.90
16479;DHT22;8350;52.316;10.530;2024-03-06T15:24:11;8.80;99.90
16479;DHT22;8350;52.316;10.530;2024-03-06T15:26:39;8.70;99.90
16479;DHT22;8350;52.316;10.530;2024-03-06T15:29:06;8.60;99.90
16479;DHT22;8350;52.316;10.530;2024-03-06T15:31:35;8.50;99.90
16479;DHT22;8350;52.316;10.530;2024-03-06T15:34:02;8.50;99.90
16479;DHT22;8350;52.316;10.530;2024-03-06T15:36:29;8.60;99.90
16479;DHT22;8350;52.316;10.530;2024-03-06T15:38:56;8.50;99.90
16479;DHT22;8350;52.316;10.530;2024-03-06T15:41:24;8.60;99.90
16479;DHT22;8350;52.316;10.530;2024-03-06T15:43:56;8.50;99.90
16479;DHT22;8350;52.316;10.530;2024-03-06T15:46:23;8.50;99.90
16479;DHT22;8350;52.316;10.530;2024-03-06T15:48:51;8.50;99.90
16479;DHT22;8350;52.316;10.530;2024-03-06T15:51:18;8.50;99.90
16479;DHT22;8350;52.316;10.530;2024-03-06T15:53:45;8.50;99.90
16479;DHT22;8350;52.316;10.530;2024-03-06T15:56:11;8.40;99.90